sensor_id;sensor_type;location;lat;lon;timestamp;temperature;humidity
34829;DHT22;21042;47.620;12.188;2023-02-01T00:01:19;2.60;99.90
34829;DHT22;21042;47.620;12.188;2023-02-01T00:03:46;2.60;99.90
34829;DHT22;21042;47.620;12.188;2023-02-01T00:06:13;2.60;99.90
34829;DHT22;21042;47.620;12.188;2023-02-01T00:08:40;2.50;99.90
34829;DHT22;21042;47.620;12.188;2023-02-01T00:11:09;2.50;99.90
34829;DHT22;21042;47.620;12.188;2023-02-01T00:13:38;2.50;99.90
34829;DHT22;21042;47.620;12.188;2023-02-01T00:18:34;2.50;99.90
34829;DHT22;21042;47.620;12.188;2023-02-01T00:21:01;2.50;99.90
34829;DHT22;21042;47.620;12.188;2023-02-01T00:23:27;2.50;99.90
34829;DHT22;21042;47.620;12.188;2023-02-01T00:25:54;2.50;99.90
34829;DHT22;21042;47.620;12.188;2023-02-01T00:28:21;2.50;99.90
34829;DHT22;21042;47.620;12.188;2023-02-01T00:31:01;2.50;99.90
34829;DHT22;21042;47.620;12.188;2023-02-01T00:33:30;2.50;99.90
34829;DHT22;21042;47.620;12.188;2023-02-01T00:35:58;2.50;99.90
34829;DHT22;21042;47.620;12.188;2023-02-01T00:38:26;2.50;99.90
34829;DHT22;21042;47.620;12.188;2023-02-01T00:40:53;2.40;99.90
34829;DHT22;21042;47.620;12.188;2023-02-01T00:43:20;2.40;99.90
34829;DHT22;21042;47.620;12.188;2023-02-01T00:45:47;2.40;99.90
34829;DHT22;21042;47.620;12.188;2023-02-01T00:48:13;2.40;99.90
34829;DHT22;21042;47.620;12.188;2023-02-01T00:50:43;2.40;99.90
34829;DHT22;21042;47.620;12.188;2023-02-01T00:53:10;2.40;99.90
34829;DHT22;21042;47.620;12.188;2023-02-01T00:55:37;2.50;99.90
34829;DHT22;21042;47.620;12.188;2023-02-01T00:58:04;2.50;99.90
34829;DHT22;21042;47.620;12.188;2023-02-01T01:00:33;2.30;99.90
34829;DHT22;21042;47.620;12.188;2023-02-01T01:02:59;2.30;99.90
34829;DHT22;21042;47.620;12.188;2023-02-01T01:05:26;2.40;99.90
34829;DHT22;21042;47.620;12.188;2023-02-01T01:07:54;2.40;99.90
34829;DHT22;21042;47.620;12.188;2023-02-01T01:10:21;2.30;99.90
34829;DHT22;21042;47.620;12.188;2023-02-01T01:12:48;2.30;99.90
34829;DHT22;21042;47.620;12.188;2023-02-01T01:15:15;2.30;99.90
34829;DHT22;21042;47.620;12.188;2023-02-01T01:17:42;2.40;99.90
34829;DHT22;21042;47.620;12.188;2023-02-01T01:20:09;2.40;99.90
34829;DHT22;21042;47.620;12.188;2023-02-01T01:22:36;2.40;99.90
34829;DHT22;21042;47.620;12.188;2023-02-01T01:25:03;2.40;99.90
34829;DHT22;21042;47.620;12.188;2023-02-01T01:27:30;2.40;99.90
34829;DHT22;21042;47.620;12.188;2023-02-01T01:29:56;2.40;99.90
34829;DHT22;21042;47.620;12.188;2023-02-01T01:32:23;2.40;99.90
34829;DHT22;21042;47.620;12.188;2023-02-01T01:34:50;2.40;99.90
34829;DHT22;21042;47.620;12.188;2023-02-01T01:37:17;2.40;99.90
34829;DHT22;21042;47.620;12.188;2023-02-01T01:39:43;2.40;99.90
34829;DHT22;21042;47.620;12.188;2023-02-01T01:42:11;2.40;99.90
34829;DHT22;21042;47.620;12.188;2023-02-01T01:47:37;2.30;99.90
34829;DHT22;21042;47.620;12.188;2023-02-01T01:50:09;2.30;99.90
34829;DHT22;21042;47.620;12.188;2023-02-01T01:52:37;2.30;99.90
34829;DHT22;21042;47.620;12.188;2023-02-01T01:55:05;2.30;99.90
34829;DHT22;21042;47.620;12.188;2023-02-01T01:57:35;2.30;99.90
34829;DHT22;21042;47.620;12.188;2023-02-01T02:00:15;2.30;99.90
34829;DHT22;21042;47.620;12.188;2023-02-01T02:02:46;2.30;99.90
34829;DHT22;21042;47.620;12.188;2023-02-01T02:05:14;2.30;99.90
34829;DHT22;21042;47.620;12.188;2023-02-01T02:07:46;2.30;99.90
34829;DHT22;21042;47.620;12.188;2023-02-01T02:10:14;2.30;99.90
34829;DHT22;21042;47.620;12.188;2023-02-01T02:12:44;2.30;99.90
34829;DHT22;21042;47.620;12.188;2023-02-01T02:15:14;2.20;99.90
34829;DHT22;21042;47.620;12.188;2023-02-01T02:21:23;2.20;99.90
34829;DHT22;21042;47.620;12.188;2023-02-01T02:23:56;2.20;99.90
34829;DHT22;21042;47.620;12.188;2023-02-01T02:35:40;2.10;99.90
34829;DHT22;21042;47.620;12.188;2023-02-01T02:41:26;2.00;99.90
34829;DHT22;21042;47.620;12.188;2023-02-01T02:44:21;2.00;99.90
34829;DHT22;21042;47.620;12.188;2023-02-01T02:47:16;2.00;99.90
34829;DHT22;21042;47.620;12.188;2023-02-01T02:50:05;1.90;99.90
34829;DHT22;21042;47.620;12.188;2023-02-01T02:53:04;1.80;99.90
34829;DHT22;21042;47.620;12.188;2023-02-01T02:55:51;1.80;99.90
34829;DHT22;21042;47.620;12.188;2023-02-01T02:58:19;1.80;99.90
34829;DHT22;21042;47.620;12.188;2023-02-01T03:01:07;1.90;99.90
34829;DHT22;21042;47.620;12.188;2023-02-01T03:03:52;1.90;99.90
34829;DHT22;21042;47.620;12.188;2023-02-01T03:06:37;1.90;99.90
34829;DHT22;21042;47.620;12.188;2023-02-01T03:09:19;1.80;99.90
34829;DHT22;21042;47.620;12.188;2023-02-01T03:11:49;1.80;99.90
34829;DHT22;21042;47.620;12.188;2023-02-01T03:14:36;1.80;99.90
34829;DHT22;21042;47.620;12.188;2023-02-01T03:17:10;1.80;99.90
34829;DHT22;21042;47.620;12.188;2023-02-01T03:19:43;1.80;99.90
34829;DHT22;21042;47.620;12.188;2023-02-01T03:22:17;1.80;99.90
34829;DHT22;21042;47.620;12.188;2023-02-01T03:24:49;1.90;99.90
34829;DHT22;21042;47.620;12.188;2023-02-01T03:27:29;1.90;99.90
34829;DHT22;21042;47.620;12.188;2023-02-01T03:32:34;1.90;99.90
34829;DHT22;21042;47.620;12.188;2023-02-01T03:38:25;1.90;99.90
34829;DHT22;21042;47.620;12.188;2023-02-01T03:43:52;1.90;99.90
34829;DHT22;21042;47.620;12.188;2023-02-01T03:46:27;1.80;99.90
34829;DHT22;21042;47.620;12.188;2023-02-01T03:49:06;1.80;99.90
34829;DHT22;21042;47.620;12.188;2023-02-01T03:51:37;1.60;99.90
34829;DHT22;21042;47.620;12.188;2023-02-01T03:54:06;1.50;99.90
34829;DHT22;21042;47.620;12.188;2023-02-01T03:56:36;1.50;99.90
34829;DHT22;21042;47.620;12.188;2023-02-01T03:59:04;1.60;99.90
34829;DHT22;21042;47.620;12.188;2023-02-01T04:01:34;1.60;99.90
34829;DHT22;21042;47.620;12.188;2023-02-01T04:04:00;1.70;99.90
34829;DHT22;21042;47.620;12.188;2023-02-01T04:06:28;1.70;99.90
34829;DHT22;21042;47.620;12.188;2023-02-01T04:08:59;1.70;99.90
34829;DHT22;21042;47.620;12.188;2023-02-01T04:11:25;1.70;99.90
34829;DHT22;21042;47.620;12.188;2023-02-01T04:13:53;1.70;99.90
34829;DHT22;21042;47.620;12.188;2023-02-01T04:16:20;1.70;99.90
34829;DHT22;21042;47.620;12.188;2023-02-01T04:18:47;1.60;99.90
34829;DHT22;21042;47.620;12.188;2023-02-01T04:21:14;1.50;99.90
34829;DHT22;21042;47.620;12.188;2023-02-01T04:23:40;1.60;99.90
34829;DHT22;21042;47.620;12.188;2023-02-01T04:26:07;1.70;99.90
34829;DHT22;21042;47.620;12.188;2023-02-01T04:28:34;1.70;99.90
34829;DHT22;21042;47.620;12.188;2023-02-01T04:31:00;1.70;99.90
34829;DHT22;21042;47.620;12.188;2023-02-01T04:33:27;1.80;99.90
34829;DHT22;21042;47.620;12.188;2023-02-01T04:35:54;1.80;99.90
34829;DHT22;21042;47.620;12.188;2023-02-01T04:38:21;1.80;99.90
34829;DHT22;21042;47.620;12.188;2023-02-01T04:40:48;1.80;99.90
34829;DHT22;21042;47.620;12.188;2023-02-01T04:43:16;1.80;99.90
34829;DHT22;21042;47.620;12.188;2023-02-01T04:45:47;1.80;99.90
34829;DHT22;21042;47.620;12.188;2023-02-01T04:48:16;1.80;99.90
34829;DHT22;21042;47.620;12.188;2023-02-01T04:50:44;1.70;99.90
34829;DHT22;21042;47.620;12.188;2023-02-01T04:53:17;1.80;99.90
34829;DHT22;21042;47.620;12.188;2023-02-01T04:55:44;1.80;99.90
34829;DHT22;21042;47.620;12.188;2023-02-01T04:58:11;1.70;99.90
34829;DHT22;21042;47.620;12.188;2023-02-01T05:00:37;1.70;99.90
34829;DHT22;21042;47.620;12.188;2023-02-01T05:03:04;1.80;99.90
34829;DHT22;21042;47.620;12.188;2023-02-01T05:05:31;1.80;99.90
34829;DHT22;21042;47.620;12.188;2023-02-01T05:07:58;1.80;99.90
34829;DHT22;21042;47.620;12.188;2023-02-01T05:10:25;1.70;99.90
34829;DHT22;21042;47.620;12.188;2023-02-01T05:12:52;1.70;99.90
34829;DHT22;21042;47.620;12.188;2023-02-01T05:15:37;1.60;99.90
34829;DHT22;21042;47.620;12.188;2023-02-01T05:18:04;1.50;99.90
34829;DHT22;21042;47.620;12.188;2023-02-01T05:20:31;1.60;99.90
34829;DHT22;21042;47.620;12.188;2023-02-01T05:22:57;1.60;99.90
34829;DHT22;21042;47.620;12.188;2023-02-01T05:25:24;1.60;99.90
34829;DHT22;21042;47.620;12.188;2023-02-01T05:27:51;1.60;99.90
34829;DHT22;21042;47.620;12.188;2023-02-01T05:30:19;1.70;99.90
34829;DHT22;21042;47.620;12.188;2023-02-01T05:32:50;1.70;99.90
34829;DHT22;21042;47.620;12.188;2023-02-01T05:35:16;1.60;99.90
34829;DHT22;21042;47.620;12.188;2023-02-01T05:37:43;1.60;99.90
34829;DHT22;21042;47.620;12.188;2023-02-01T05:40:10;1.70;99.90
34829;DHT22;21042;47.620;12.188;2023-02-01T05:42:37;1.70;99.90
34829;DHT22;21042;47.620;12.188;2023-02-01T05:45:04;1.80;99.90
34829;DHT22;21042;47.620;12.188;2023-02-01T05:47:31;1.80;99.90
34829;DHT22;21042;47.620;12.188;2023-02-01T05:49:58;1.70;99.90
34829;DHT22;21042;47.620;12.188;2023-02-01T05:52:25;1.80;99.90
34829;DHT22;21042;47.620;12.188;2023-02-01T05:54:51;1.80;99.90
34829;DHT22;21042;47.620;12.188;2023-02-01T05:57:19;1.90;99.90
34829;DHT22;21042;47.620;12.188;2023-02-01T05:59:45;1.90;99.90
34829;DHT22;21042;47.620;12.188;2023-02-01T06:02:14;1.90;99.90
34829;DHT22;21042;47.620;12.188;2023-02-01T06:04:41;1.80;99.90
34829;DHT22;21042;47.620;12.188;2023-02-01T06:07:08;1.80;99.90
34829;DHT22;21042;47.620;12.188;2023-02-01T06:09:37;1.80;99.90
34829;DHT22;21042;47.620;12.188;2023-02-01T06:12:04;1.90;99.90
34829;DHT22;21042;47.620;12.188;2023-02-01T06:14:30;1.90;99.90
34829;DHT22;21042;47.620;12.188;2023-02-01T06:16:57;1.90;99.90
34829;DHT22;21042;47.620;12.188;2023-02-01T06:19:24;2.00;99.90
34829;DHT22;21042;47.620;12.188;2023-02-01T06:21:51;2.00;99.90
34829;DHT22;21042;47.620;12.188;2023-02-01T06:24:18;2.00;99.90
34829;DHT22;21042;47.620;12.188;2023-02-01T06:26:44;2.00;99.90
34829;DHT22;21042;47.620;12.188;2023-02-01T06:29:11;2.10;99.90
34829;DHT22;21042;47.620;12.188;2023-02-01T06:31:38;2.00;99.90
34829;DHT22;21042;47.620;12.188;2023-02-01T06:34:06;2.00;99.90
34829;DHT22;21042;47.620;12.188;2023-02-01T06:36:33;1.90;99.90
34829;DHT22;21042;47.620;12.188;2023-02-01T06:38:59;1.90;99.90
34829;DHT22;21042;47.620;12.188;2023-02-01T06:41:26;1.90;99.90
34829;DHT22;21042;47.620;12.188;2023-02-01T06:43:55;1.80;99.90
34829;DHT22;21042;47.620;12.188;2023-02-01T06:46:22;1.80;99.90
34829;DHT22;21042;47.620;12.188;2023-02-01T06:48:49;1.80;99.90
34829;DHT22;21042;47.620;12.188;2023-02-01T06:51:25;1.70;99.90
34829;DHT22;21042;47.620;12.188;2023-02-01T06:53:52;1.60;99.90
34829;DHT22;21042;47.620;12.188;2023-02-01T06:56:19;1.50;99.90
34829;DHT22;21042;47.620;12.188;2023-02-01T06:58:47;1.50;99.90
34829;DHT22;21042;47.620;12.188;2023-02-01T07:01:14;1.50;99.90
34829;DHT22;21042;47.620;12.188;2023-02-01T07:03:42;1.60;99.90
34829;DHT22;21042;47.620;12.188;2023-02-01T07:06:09;1.60;99.90
34829;DHT22;21042;47.620;12.188;2023-02-01T07:08:37;1.60;99.90
34829;DHT22;21042;47.620;12.188;2023-02-01T07:11:10;1.60;99.90
34829;DHT22;21042;47.620;12.188;2023-02-01T07:13:37;1.60;99.90
34829;DHT22;21042;47.620;12.188;2023-02-01T07:16:09;1.60;99.90
34829;DHT22;21042;47.620;12.188;2023-02-01T07:18:36;1.70;99.90
34829;DHT22;21042;47.620;12.188;2023-02-01T07:21:03;1.80;99.90
34829;DHT22;21042;47.620;12.188;2023-02-01T07:23:30;1.70;99.90
34829;DHT22;21042;47.620;12.188;2023-02-01T07:25:59;1.80;99.90
34829;DHT22;21042;47.620;12.188;2023-02-01T07:28:28;1.80;99.90
34829;DHT22;21042;47.620;12.188;2023-02-01T07:31:05;1.70;99.90
34829;DHT22;21042;47.620;12.188;2023-02-01T07:33:33;1.70;99.90
34829;DHT22;21042;47.620;12.188;2023-02-01T07:36:02;1.80;99.90
34829;DHT22;21042;47.620;12.188;2023-02-01T07:38:29;1.90;99.90
34829;DHT22;21042;47.620;12.188;2023-02-01T07:41:00;1.80;99.90
34829;DHT22;21042;47.620;12.188;2023-02-01T07:43:28;1.90;99.90
34829;DHT22;21042;47.620;12.188;2023-02-01T07:45:55;2.00;99.90
34829;DHT22;21042;47.620;12.188;2023-02-01T07:48:24;2.00;99.90
34829;DHT22;21042;47.620;12.188;2023-02-01T07:51:18;2.00;99.90
34829;DHT22;21042;47.620;12.188;2023-02-01T07:53:44;2.00;99.90
34829;DHT22;21042;47.620;12.188;2023-02-01T07:56:16;2.00;99.90
34829;DHT22;21042;47.620;12.188;2023-02-01T07:58:48;2.10;99.90
34829;DHT22;21042;47.620;12.188;2023-02-01T08:01:23;2.10;99.90
34829;DHT22;21042;47.620;12.188;2023-02-01T08:03:56;2.00;99.90
34829;DHT22;21042;47.620;12.188;2023-02-01T08:06:23;2.10;99.90
34829;DHT22;21042;47.620;12.188;2023-02-01T08:08:52;2.10;99.90
34829;DHT22;21042;47.620;12.188;2023-02-01T08:11:20;2.10;99.90
34829;DHT22;21042;47.620;12.188;2023-02-01T08:13:48;2.10;99.90
34829;DHT22;21042;47.620;12.188;2023-02-01T08:16:16;2.10;99.90
34829;DHT22;21042;47.620;12.188;2023-02-01T08:18:44;2.10;99.90
34829;DHT22;21042;47.620;12.188;2023-02-01T08:21:20;2.10;99.90
34829;DHT22;21042;47.620;12.188;2023-02-01T08:23:48;2.20;99.90
34829;DHT22;21042;47.620;12.188;2023-02-01T08:26:24;2.20;99.90
34829;DHT22;21042;47.620;12.188;2023-02-01T08:29:02;2.30;99.90
34829;DHT22;21042;47.620;12.188;2023-02-01T08:31:30;2.30;99.90
34829;DHT22;21042;47.620;12.188;2023-02-01T08:33:59;2.20;99.90
34829;DHT22;21042;47.620;12.188;2023-02-01T08:36:28;2.20;99.90
34829;DHT22;21042;47.620;12.188;2023-02-01T08:38:55;2.40;99.90
34829;DHT22;21042;47.620;12.188;2023-02-01T08:41:24;2.50;99.90
34829;DHT22;21042;47.620;12.188;2023-02-01T08:43:52;2.70;99.90
34829;DHT22;21042;47.620;12.188;2023-02-01T08:46:20;2.80;99.90
34829;DHT22;21042;47.620;12.188;2023-02-01T08:48:47;2.90;99.90
34829;DHT22;21042;47.620;12.188;2023-02-01T08:51:15;3.00;99.90
34829;DHT22;21042;47.620;12.188;2023-02-01T08:53:43;3.00;99.90
34829;DHT22;21042;47.620;12.188;2023-02-01T08:56:12;3.10;99.90
34829;DHT22;21042;47.620;12.188;2023-02-01T08:58:39;3.00;99.90
34829;DHT22;21042;47.620;12.188;2023-02-01T09:01:11;2.70;99.90
34829;DHT22;21042;47.620;12.188;2023-02-01T09:03:39;2.60;99.90
34829;DHT22;21042;47.620;12.188;2023-02-01T09:06:09;2.60;99.90
34829;DHT22;21042;47.620;12.188;2023-02-01T09:08:37;2.60;99.90
34829;DHT22;21042;47.620;12.188;2023-02-01T09:11:10;2.60;99.90
34829;DHT22;21042;47.620;12.188;2023-02-01T09:13:37;2.60;99.90
34829;DHT22;21042;47.620;12.188;2023-02-01T09:16:04;2.60;99.90
34829;DHT22;21042;47.620;12.188;2023-02-01T09:18:31;2.60;99.90
34829;DHT22;21042;47.620;12.188;2023-02-01T09:20:58;2.60;99.90
34829;DHT22;21042;47.620;12.188;2023-02-01T09:23:25;2.50;99.90
34829;DHT22;21042;47.620;12.188;2023-02-01T09:25:51;2.50;99.90
34829;DHT22;21042;47.620;12.188;2023-02-01T09:28:18;2.50;99.90
34829;DHT22;21042;47.620;12.188;2023-02-01T09:30:45;2.50;99.90
34829;DHT22;21042;47.620;12.188;2023-02-01T09:33:12;2.50;99.90
34829;DHT22;21042;47.620;12.188;2023-02-01T09:35:39;2.60;99.90
34829;DHT22;21042;47.620;12.188;2023-02-01T09:38:05;2.80;99.90
34829;DHT22;21042;47.620;12.188;2023-02-01T09:40:34;2.90;99.90
34829;DHT22;21042;47.620;12.188;2023-02-01T09:43:10;2.90;99.90
34829;DHT22;21042;47.620;12.188;2023-02-01T09:48:20;3.30;99.90
34829;DHT22;21042;47.620;12.188;2023-02-01T09:50:56;3.40;99.90
34829;DHT22;21042;47.620;12.188;2023-02-01T09:53:30;3.50;99.90
34829;DHT22;21042;47.620;12.188;2023-02-01T09:56:07;3.60;99.90
34829;DHT22;21042;47.620;12.188;2023-02-01T09:58:47;3.50;99.90
34829;DHT22;21042;47.620;12.188;2023-02-01T10:01:24;3.30;99.90
34829;DHT22;21042;47.620;12.188;2023-02-01T10:03:56;3.10;99.90
34829;DHT22;21042;47.620;12.188;2023-02-01T10:28:01;3.80;99.90
34829;DHT22;21042;47.620;12.188;2023-02-01T10:30:34;3.90;99.90
34829;DHT22;21042;47.620;12.188;2023-02-01T10:33:19;3.90;99.90
34829;DHT22;21042;47.620;12.188;2023-02-01T10:35:53;4.00;99.90
34829;DHT22;21042;47.620;12.188;2023-02-01T10:38:27;4.00;99.90
34829;DHT22;21042;47.620;12.188;2023-02-01T10:41:01;4.00;99.90
34829;DHT22;21042;47.620;12.188;2023-02-01T10:43:30;4.00;99.90
34829;DHT22;21042;47.620;12.188;2023-02-01T10:45:57;4.00;99.90
34829;DHT22;21042;47.620;12.188;2023-02-01T10:48:24;4.10;99.90
34829;DHT22;21042;47.620;12.188;2023-02-01T10:50:58;4.20;99.90
34829;DHT22;21042;47.620;12.188;2023-02-01T10:53:33;4.00;99.90
34829;DHT22;21042;47.620;12.188;2023-02-01T10:56:07;4.10;99.90
34829;DHT22;21042;47.620;12.188;2023-02-01T10:58:36;4.30;99.90
34829;DHT22;21042;47.620;12.188;2023-02-01T11:01:21;4.30;99.90
34829;DHT22;21042;47.620;12.188;2023-02-01T11:04:02;4.40;99.90
34829;DHT22;21042;47.620;12.188;2023-02-01T11:06:40;4.40;99.90
34829;DHT22;21042;47.620;12.188;2023-02-01T11:11:53;4.30;99.90
34829;DHT22;21042;47.620;12.188;2023-02-01T11:14:28;4.30;99.90
34829;DHT22;21042;47.620;12.188;2023-02-01T11:16:59;4.40;99.90
34829;DHT22;21042;47.620;12.188;2023-02-01T11:19:29;4.40;99.90
34829;DHT22;21042;47.620;12.188;2023-02-01T11:21:58;4.60;99.90
34829;DHT22;21042;47.620;12.188;2023-02-01T11:24:32;4.70;99.90
34829;DHT22;21042;47.620;12.188;2023-02-01T11:27:02;4.60;99.90
34829;DHT22;21042;47.620;12.188;2023-02-01T11:29:37;4.70;99.90
34829;DHT22;21042;47.620;12.188;2023-02-01T11:32:05;4.70;99.90
34829;DHT22;21042;47.620;12.188;2023-02-01T11:34:37;4.70;99.90
34829;DHT22;21042;47.620;12.188;2023-02-01T11:37:17;4.60;99.90
34829;DHT22;21042;47.620;12.188;2023-02-01T11:39:54;4.70;99.90
34829;DHT22;21042;47.620;12.188;2023-02-01T11:42:21;4.70;99.90
34829;DHT22;21042;47.620;12.188;2023-02-01T11:44:48;4.80;99.90
34829;DHT22;21042;47.620;12.188;2023-02-01T11:47:27;4.90;99.90
34829;DHT22;21042;47.620;12.188;2023-02-01T11:49:57;5.00;99.90
34829;DHT22;21042;47.620;12.188;2023-02-01T11:55:10;5.00;99.90
34829;DHT22;21042;47.620;12.188;2023-02-01T11:58:05;5.10;99.90
34829;DHT22;21042;47.620;12.188;2023-02-01T12:11:35;5.20;99.90
34829;DHT22;21042;47.620;12.188;2023-02-01T12:14:20;5.30;99.90
34829;DHT22;21042;47.620;12.188;2023-02-01T12:25:09;5.90;99.90
34829;DHT22;21042;47.620;12.188;2023-02-01T12:27:49;5.90;99.90
34829;DHT22;21042;47.620;12.188;2023-02-01T12:36:41;6.00;99.90
34829;DHT22;21042;47.620;12.188;2023-02-01T12:39:40;6.00;99.90
34829;DHT22;21042;47.620;12.188;2023-02-01T12:42:18;6.20;99.90
34829;DHT22;21042;47.620;12.188;2023-02-01T12:44:52;6.30;99.90
34829;DHT22;21042;47.620;12.188;2023-02-01T12:47:37;6.40;99.90
34829;DHT22;21042;47.620;12.188;2023-02-01T12:50:28;6.50;99.90
34829;DHT22;21042;47.620;12.188;2023-02-01T12:53:12;6.60;99.90
34829;DHT22;21042;47.620;12.188;2023-02-01T12:55:53;6.80;99.90
34829;DHT22;21042;47.620;12.188;2023-02-01T12:58:26;6.90;99.90
34829;DHT22;21042;47.620;12.188;2023-02-01T13:01:06;6.80;99.90
34829;DHT22;21042;47.620;12.188;2023-02-01T13:06:34;6.80;99.90
34829;DHT22;21042;47.620;12.188;2023-02-01T13:11:53;6.70;99.90
34829;DHT22;21042;47.620;12.188;2023-02-01T13:14:36;6.50;99.90
34829;DHT22;21042;47.620;12.188;2023-02-01T13:17:09;6.60;99.90
34829;DHT22;21042;47.620;12.188;2023-02-01T13:22:31;6.60;99.90
34829;DHT22;21042;47.620;12.188;2023-02-01T13:25:11;6.60;99.90
34829;DHT22;21042;47.620;12.188;2023-02-01T13:27:39;6.60;99.90
34829;DHT22;21042;47.620;12.188;2023-02-01T13:30:23;6.60;99.90
34829;DHT22;21042;47.620;12.188;2023-02-01T13:38:45;6.40;99.90
34829;DHT22;21042;47.620;12.188;2023-02-01T13:41:31;6.40;99.90
34829;DHT22;21042;47.620;12.188;2023-02-01T13:44:13;6.50;99.90
34829;DHT22;21042;47.620;12.188;2023-02-01T13:46:44;6.40;99.90
34829;DHT22;21042;47.620;12.188;2023-02-01T13:49:21;6.50;99.90
34829;DHT22;21042;47.620;12.188;2023-02-01T13:51:52;6.50;99.90
34829;DHT22;21042;47.620;12.188;2023-02-01T13:56:54;6.60;99.90
34829;DHT22;21042;47.620;12.188;2023-02-01T14:05:57;6.60;99.90
34829;DHT22;21042;47.620;12.188;2023-02-01T14:10:50;6.70;99.90
34829;DHT22;21042;47.620;12.188;2023-02-01T14:26:21;6.90;99.90
34829;DHT22;21042;47.620;12.188;2023-02-01T14:37:09;7.00;99.90
34829;DHT22;21042;47.620;12.188;2023-02-01T14:39:40;6.90;99.90
34829;DHT22;21042;47.620;12.188;2023-02-01T14:42:43;6.90;99.90
34829;DHT22;21042;47.620;12.188;2023-02-01T14:58:42;6.80;99.90
34829;DHT22;21042;47.620;12.188;2023-02-01T15:01:26;6.80;99.90
34829;DHT22;21042;47.620;12.188;2023-02-01T15:04:13;6.70;99.90
34829;DHT22;21042;47.620;12.188;2023-02-01T15:06:49;6.70;99.90
34829;DHT22;21042;47.620;12.188;2023-02-01T15:14:28;6.50;99.90
34829;DHT22;21042;47.620;12.188;2023-02-01T15:16:55;6.40;99.90
34829;DHT22;21042;47.620;12.188;2023-02-01T15:19:25;6.50;99.90
34829;DHT22;21042;47.620;12.188;2023-02-01T15:21:55;6.40;99.90
34829;DHT22;21042;47.620;12.188;2023-02-01T15:24:30;6.40;99.90
34829;DHT22;21042;47.620;12.188;2023-02-01T15:27:04;6.30;99.90
34829;DHT22;21042;47.620;12.188;2023-02-01T15:29:30;6.30;99.90
34829;DHT22;21042;47.620;12.188;2023-02-01T15:31:59;6.10;99.90
34829;DHT22;21042;47.620;12.188;2023-02-01T15:37:14;5.80;99.90
34829;DHT22;21042;47.620;12.188;2023-02-01T15:42:53;5.70;99.90
34829;DHT22;21042;47.620;12.188;2023-02-01T15:45:24;5.70;99.90
34829;DHT22;21042;47.620;12.188;2023-02-01T15:47:54;5.70;99.90
34829;DHT22;21042;47.620;12.188;2023-02-01T15:50:21;5.70;99.90
34829;DHT22;21042;47.620;12.188;2023-02-01T15:52:53;5.70;99.90
34829;DHT22;21042;47.620;12.188;2023-02-01T15:55:36;5.70;99.90
34829;DHT22;21042;47.620;12.188;2023-02-01T15:58:08;5.70;99.90
34829;DHT22;21042;47.620;12.188;2023-02-01T16:00:45;5.60;99.90
34829;DHT22;21042;47.620;12.188;2023-02-01T16:06:05;5.70;99.90
34829;DHT22;21042;47.620;12.188;2023-02-01T16:08:33;5.70;99.90
34829;DHT22;21042;47.620;12.188;2023-02-01T16:11:27;5.70;99.90
34829;DHT22;21042;47.620;12.188;2023-02-01T16:13:54;5.60;99.90
34829;DHT22;21042;47.620;12.188;2023-02-01T16:16:21;5.60;99.90
34829;DHT22;21042;47.620;12.188;2023-02-01T16:18:48;5.50;99.90
34829;DHT22;21042;47.620;12.188;2023-02-01T16:21:15;5.50;99.90
34829;DHT22;21042;47.620;12.188;2023-02-01T16:23:41;5.50;99.90
34829;DHT22;21042;47.620;12.188;2023-02-01T16:26:08;5.50;99.90
34829;DHT22;21042;47.620;12.188;2023-02-01T16:28:35;5.60;99.90
34829;DHT22;21042;47.620;12.188;2023-02-01T16:31:02;5.60;99.90
34829;DHT22;21042;47.620;12.188;2023-02-01T16:33:29;5.60;99.90
34829;DHT22;21042;47.620;12.188;2023-02-01T16:35:56;5.70;99.90
34829;DHT22;21042;47.620;12.188;2023-02-01T16:38:26;5.70;99.90
34829;DHT22;21042;47.620;12.188;2023-02-01T16:40:53;5.60;99.90
34829;DHT22;21042;47.620;12.188;2023-02-01T16:43:22;5.60;99.90
34829;DHT22;21042;47.620;12.188;2023-02-01T16:45:51;5.60;99.90
34829;DHT22;21042;47.620;12.188;2023-02-01T16:48:25;5.60;99.90
34829;DHT22;21042;47.620;12.188;2023-02-01T16:50:55;5.60;99.90
34829;DHT22;21042;47.620;12.188;2023-02-01T16:53:24;5.50;99.90
34829;DHT22;21042;47.620;12.188;2023-02-01T16:55:51;5.40;99.90
34829;DHT22;21042;47.620;12.188;2023-02-01T16:58:20;5.40;99.90
34829;DHT22;21042;47.620;12.188;2023-02-01T17:00:47;5.40;99.90
34829;DHT22;21042;47.620;12.188;2023-02-01T17:03:14;5.20;99.90
34829;DHT22;21042;47.620;12.188;2023-02-01T17:05:54;5.20;99.90
34829;DHT22;21042;47.620;12.188;2023-02-01T17:08:28;5.20;99.90
34829;DHT22;21042;47.620;12.188;2023-02-01T17:10:58;5.20;99.90
34829;DHT22;21042;47.620;12.188;2023-02-01T17:13:24;5.20;99.90
34829;DHT22;21042;47.620;12.188;2023-02-01T17:15:57;5.30;99.90
34829;DHT22;21042;47.620;12.188;2023-02-01T17:18:27;5.60;99.90
34829;DHT22;21042;47.620;12.188;2023-02-01T17:21:01;5.70;99.90
34829;DHT22;21042;47.620;12.188;2023-02-01T17:23:29;5.70;99.90
34829;DHT22;21042;47.620;12.188;2023-02-01T17:25:56;5.60;99.90
34829;DHT22;21042;47.620;12.188;2023-02-01T17:28:24;5.50;99.90
34829;DHT22;21042;47.620;12.188;2023-02-01T17:30:50;5.50;99.90
34829;DHT22;21042;47.620;12.188;2023-02-01T17:33:27;5.50;99.90
34829;DHT22;21042;47.620;12.188;2023-02-01T17:36:03;5.40;99.90
34829;DHT22;21042;47.620;12.188;2023-02-01T17:38:30;5.30;99.90
34829;DHT22;21042;47.620;12.188;2023-02-01T17:40:57;5.30;99.90
34829;DHT22;21042;47.620;12.188;2023-02-01T17:43:25;5.30;99.90
34829;DHT22;21042;47.620;12.188;2023-02-01T17:45:55;5.30;99.90
34829;DHT22;21042;47.620;12.188;2023-02-01T17:48:24;5.40;99.90
34829;DHT22;21042;47.620;12.188;2023-02-01T17:50:54;5.40;99.90
34829;DHT22;21042;47.620;12.188;2023-02-01T17:53:25;5.40;99.90
34829;DHT22;21042;47.620;12.188;2023-02-01T17:55:53;5.30;99.90
34829;DHT22;21042;47.620;12.188;2023-02-01T17:58:19;5.40;99.90
34829;DHT22;21042;47.620;12.188;2023-02-01T18:00:47;5.30;99.90
34829;DHT22;21042;47.620;12.188;2023-02-01T18:03:22;4.40;99.90
34829;DHT22;21042;47.620;12.188;2023-02-01T18:05:50;5.20;99.90
34829;DHT22;21042;47.620;12.188;2023-02-01T18:08:24;5.20;99.90
34829;DHT22;21042;47.620;12.188;2023-02-01T18:10:56;5.40;99.90
34829;DHT22;21042;47.620;12.188;2023-02-01T18:13:27;5.40;99.90
34829;DHT22;21042;47.620;12.188;2023-02-01T18:15:54;5.50;99.90
34829;DHT22;21042;47.620;12.188;2023-02-01T18:18:21;5.70;99.90
34829;DHT22;21042;47.620;12.188;2023-02-01T18:20:48;5.60;99.90
34829;DHT22;21042;47.620;12.188;2023-02-01T18:23:22;5.70;99.90
34829;DHT22;21042;47.620;12.188;2023-02-01T18:25:50;5.80;99.90
34829;DHT22;21042;47.620;12.188;2023-02-01T18:28:18;5.70;99.90
34829;DHT22;21042;47.620;12.188;2023-02-01T18:30:47;5.60;99.90
34829;DHT22;21042;47.620;12.188;2023-02-01T18:33:16;5.50;99.90